Terminal Aerodrome Forecast
Issued by NWS

Home | Current Version | Previous Version | Text Only | Print | Product List | Glossary On
Versions: 1 2 3 4 5 6 7 8 9 10 11 12 13 14 15 16 17 18 19 20 21 22 23
000
FTUS43 KLSX 170500
TAFCPS
TAF
KCPS 170530Z 1706/1806 VRB03KT 3SM BR SKC
      TEMPO 1706/1710 1/2SM FG BKN002
     FM171000 VRB03KT P6SM BKN035=

USA.gov is the U.S. government's official web portal to all federal, state and local government web resources and services.